Awards

Competitive
Bid (?)
Reference # (?) Description Vendor Name City State Est. Amt (?) Start/ Effective Date End Comments
4600010703/ 44581 Pavement Materials, WIM - 2 Yr. Req. Contract CRAFCO, INC CHANDLER AZ $31,114 4/13/2016 4/12/2018
4600010690/ 44498 Aqueous Urea Ferry, ENGR Construction - 3 Years  GRADE A PETROLEUM CORPORATION VALLEY STREAM NY $110,880 4/7/2016 4/6/2019
4600010725/ 44365 Screened Loam Soil, EWR - 2 Yr. Req. Contract BARBATO NURSERY CORP. HOLBROOK NY $28,236 1/24/2016 1/23/2018
4600010721/ 44431 Roofing Services, EWR - 3 Years PRAVCO, INC. RAHWAY NJ $824,940 1/21/2016 1/20/2019 SBE Set-Aside
4600010685/ 44307 Rock Salt/Ice Melt Bags, WIM - 16 Months  HD SUPPLY CONSTRUCTION SUPPLY, LTD NORTH BERGEN NJ $514,502 1/12/2016 4/30/2017
4600010715/ 44636 Refuse Removal, GWB, LT, HT - 2 Years CENTURY WASTE SERVICES LLC ELIZABETH NJ $433,520 1/19/2016 1/18/2018
4600010706/ 44527 Refuse Removal, NJ Facilities- 2 Years ALLEGRO SANITATION CORP. SECAUCUS NJ $266,068 1/14/2016 1/13/2018
4500066531/ 44654 Electrical Main Contact Kits, PATH MAC PRODUCTS, INC. KEARNY NJ $34,839 1/14/2016 N/A
4600010692/ 44406 Boat Parts & Equip, WIM - 2 Yr. Req. Contract LOCKWOOD BOAT WORKS, INC. SOUTH AMBOY NJ $112,186 1/13/2016 1/12/2018
4500066525/ 44750 Batteries for Substation, Teleport LECLERC'S ELECTRIC CORP LAURELTON NY $31,340 1/11/2016 N/A
4500066511/ 43512 Repair, Restore PA5 Railcar 5784 DELAWARE CAR COMPANY WILMINGTON DE $197,048 1/7/2016 N/A
4600010569/ 43970 Blow Mulch Svcs, EWR - 2 Yr. Req. Contract  DOWNES FOREST PRODUCTS HAWTHORNE NJ $28,200 1/3/2016 1/2/2018
4600010679/ 43762 Elev/Esc Maint & Rep, PATH - 3 Years SCHINDLER ELEVATOR CORPORATION MORRISTOWN NJ $10,135,158 1/1/2016 12/31/2018
4600010683/ 43964 Tower Elev Repair, GWB - 3 Years USA HOIST COMPANY, INC. NEWTON NJ $424,820 1/1/2016 12/31/2018
4600010696/ 43832 HVAC Svcs - CHRP Chiller Units, EWR - 3 Years JOHNSON CONTROLS, INC. EDISON NJ $1,447,740 12/29/2015 12/28/2018
4500066499/ 44625 LED Transit Signal Modules, PATH TRANSPORTATION PRODUCTS AMESBURY MA $57,900 12/23/2015 N/A
4600010674/ 43345 HVAC Svcs-NY Fac, Real Estate - 2 Years AMERICAN COMMERCIAL EQUIPMENT BROOKLYN NY $212,208 12/21/2015 12/20/2017
4600010661/ 44303 Oil Hydraulic Bio Veg, PATH - 3 Years PORTLAND WILLIAMS, LLC ELMSFORD NY $140,400 12/4/2015 1/10/2016
4600010654/ 42835 Decals, WIM - 4 Yr. Req. Contract DREW & ROGERS, INC. FAIRFIELD NJ $517,492 12/3/2015 12/2/2019
4600010601/ 44012 Refuse Removal, Sec. I,  LGA - 2 Years METROPOLITAN RECYCLING BROOKLYN NY $423,966 12/1/2015 11/30/2017
4600010618/ 44012 Refuse Removal Svs. Section II, LGA - 2 Years TULLY ENVIRONMENTAL, INC. FLUSHING NY $70,200 12/1/2015 11/30/2017
4600010595/ 43878 Framing Svcs, Ops ART O FRAME, INC. HACKENSACK NJ $110,869 12/1/2015 11/30/2017
4600010640/ 44148 X-Ray Maint., HR-OMS - 3 Yr. Req. Contract MED-X-RAY COMPANY INC EAST ORANGE NJ $41,070 12/1/2015 11/30/2018
4600010603/ 43900 Manhole Covers, WIM - 1 Yr. Req. Contract BRENT MATERIAL CO FLORHAM PARK NJ $175,398 11/23/2015 11/22/2016
4500066384/ 44063 Electrical Racking System W&S, PATH CIRCUIT BREAKER SALES NE INC. SEYMOUR CT $63,340 11/20/2015 N/A
4500066266/ 43748 Hamm Roller and Felling Trailer, CAD-JFK EDWARD EHRBAR, INC. YONKERS NY $220,146 11/9/2015 N/A
4600010556/ 43633 Sump/Catch Basins Clng, LT & SIB - 2 Years RESIDUALS MANAGEMENT SERVICES, LLC VERNON NJ $366,450 11/8/2015 11/7/2017
4500066315/ 43972 Wheel-Axle Sets, 33-in, PATH Flatcars MWL BRASIL RODAS & EIXOS LTDA CACAPAVA BR $46,400 11/4/2015 N/A  
4600010549/ 42536 Vehicle Arrest Sys Maint/Repair Svcs, JFK OXFORD AIRPORT TECHNICAL SERVICES ELMONT NY $1,932,159 11/1/2015 10/31/2018  
4600010575/ 43630 Ready-Mix Concrete, NJ Facilities - 2 Yr. Req. Contract WELDON MATERIALS, INC. WESTFIELD NJ $514,163 11/2/2015 11/1/2017  
4600010537/ 43470 Salt & Calcium Ice Melt, PATh - 6 Month Req. Contract REED & PERRINE SALES, INC. TENNENT NJ $218,960 11/1/2015 5/31/2016  
4600010565 Police Records SW, Public Safety - 1 Year SHI INTERNATIONAL CORP. SOMERSET NJ $132,300 6/25/2015 6/24/2016  
4600010533/ 43553 Landscaping Supplies, WIM - 2 Yr. Req. Contract ALL PRO HORTICULTURE, INC. COPIAGUE NY $167,067 3/11/2016 3/10/2018  
4600010559/ 43629 Hot Asphalt, PATC - 2 Yr. Req. Contract WELDON MATERIALS, INC. WESTFIELD NJ $650,800 12/18/2015 12/17/2017  
4600010550/ 43014 Air Filters, PATH - 2 Yr. Req. Contract NATIONAL AIR FILTER SERVICE COMPANY CEDAR GROVE NJ $120,720 11/1/2015 10/31/2017  
4600010577/ 43842 Waste Water Insp., NJMT - 3 Years CP ENGINEERS, LLC SPARTA NJ $40,029 10/28/2015 10/27/2018  
4500066274/ 43973 Hydraulic Jack, PATH Harrison Stockroom METRO HYDRAULIC JACK CO. NEWARK NJ $62,940 10/21/2015 N/A  
4500066181/ 43226 Circuit Breakers Signals, PATH MYERS CONTROLLED POWER LLC NORTH CANTON OH $161,952 10/20/2015 N/A  
4600010563/ 43888 Sanitary Tank Cleaning, LGA - 1 Year CLEAN VENTURE, INC. ELIZABETH NJ $67,125 10/19/2015 10/18/2016  
4500066244/ 43475 Electrical HV Splice Kits, PATH TESLA ENERGY SOLUTIONS SPRINGFIELD PA $58,400 10/9/2015 N/A
4600010546/ 43692 Refuse Removal, SEMAC NY - 2 Years IESI NY CORPORATION NEW YORK NY $233,070 10/8/2015 10/7/2016
4500066216/ 41583 45' Aerial Truck, EWR-CAD BRIAN HOSKINS FORD INC. COATESVILLE PA $136,000 10/8/2015 N/A
4600010524/ 43231 Baggage Handling Srvcs, EWR - 3 Years AIRSERV CORPORATION ATLANTA GA $1,224,473 10/1/2015 9/30/2018
4500066223/ 43472 LED Signal Head Lamps, PATH TRANSPORTATION PRODUCTS AMESBURY MA $49,900 10/1/2015 N/A
4600010525/ 43621 Collector Paddle, PATH PA-5 - 2 Years HAFCO FOUNDRY & MACHINE COMPANY, INC.  MIDLAND PARK NJ $156,060 9/29/2015 9/28/2017
4500066189/ 43387 Flat Car Wheels, PATH MWL BRASIL RODAS & EIXOS LTDA CACAPAVA BR $46,560 9/29/2015 N/A
4600010497/ 42893 Integrated Pest Mgt, NJMT - 3 Years GUARDIAN EXTERMINATING SERVICES NEW YORK NY $41,227 9/23/2015 9/22/2018
4600010520/ 42949 Asphalt Paving/Patching, NYMT - 2 Years NY ASPHALT INC STATEN ISLAND NY $384,763 9/20/2015 9/19/2017
4600010507/ 42732 Rubber Removal, Aviation - 2 Yr. Req. Contract RAMPART HYDRO SERVICES CORAOPOLIS PA $1,306,441 9/12/2015 9/11/2017
4600010513/ 43410 Bobcat Equip, WIM - 2 Yr. Req. Contract BOBCAT OF NORTH JERSEY-EAST TOTOWA NJ $40,473 9/11/2015 9/10/2017
4500066171/ 43310 Mobile Light Tower Generators, WIM-JFK EVERGREEN SPECIALTY SERVICES COMMACK NY $67,450 9/9/2015 N/A
4600010504/ 43037 Transfer Station Svs, JFK - 2 Years ROYAL WASTE SERVICES, INC. HOLLIS NY $103,200 9/3/2015 8/31/2017
4600010488/ 43037 Refuse Removal, JFK - 2 Years REGENCY RECYCLING CORP. ROSEDALE NY $915,027 9/1/2015 8/31/2017
4600010489 Cleaning Services, GWB - 3 Years SUSAN'S CLEANING ANGELS HICKSVILLE NY $2,110,510 9/1/2015 8/31/2018 SBE Set-Aside
4600010494/ 43126 Pest Control, LGA - 3 Years DYNAMIC PEST CONTROL, INC. SPRINGFIELD GARDENS NY $57,728 9/1/2015 8/31/2018
4600010487/ 42451 Irrigation System Mtce, EWR - 3 Years ALL COUNTY IRRIGATION LLC d/b/a MOUNTAIN LANDSCAPE CONTRACTORS INC WAYNE NJ $109,710 9/1/2015 8/31/2018
4500066133/ 42542 Circuit Breakers Qty 3 FTA, PATH MYERS CONTROLLED POWER LLC NORTH CANTON OH $138,186 8/25/2015 N/A
4500066139/ 43048 Circuit Breakers DC HS Traction, PATH MYERS CONTROLLED POWER LLC NORTH CANTON OH $73,077 8/25/2015 N/A
4600010467/ 42804 Cover Stock & Specialty Paper, Ops - 3 Yr. Req. Contract LINDENMEYR MUNROE MOONACHIE NJ $524,755 8/22/2015 8/21/2018
4600010468/ 41543 Non-Structural Constr Labor, NY Facilities - 2 Years MILLENNIUM CONTRACTING BROOKLYN NY $1,087,421 8/22/2015 8/21/2017
4600010474/ 43046 Generator Services, Teleport - 3 Years FOLEY, INCORPORATED PISCATAWAY NJ $88,035 8/15/2015 8/14/2018
4600010471/ 43080 Hot Asphalt, EWR - 2 Yr. Req. Contract WELDON ASPHALT WESTFIELD NJ $394,108 8/15/2015 8/14/2017
4600010479/ 42372 Canine (K9) Police Supplies, WIM PATC  MASON COMPANY LEESBURG OH $35,346 8/14/2015 8/13/2017
4500066098/ 41672 Construction and Delivery of 2 Barge-Type Rail Car Floats METAL TRADES, INC YONGES ISLAND SC $12,071,280 8/11/2015 N/A
4500066120/ 43090 Snow Plow Blades, JFK MYSLIK, INC. MORRISON CO $27,540 8/11/2015 N/A
4500066083/ 43016 Safety Carts, Public Safety THE NOLAN COMPANY CANTON OH $49,304 8/6/2015 N/A
4500066090/ 40902 Crane Car Manufacture/Deliver HCMF, PATH MODERN TRACK MACHINERY, INC. ELGIN IL $1,647,580 8/7/2015 N/A
4600010469/ 42765 Waste Water Inspection, EWR - 3 Years JOHNSON MIRMIRAN AND THOMPSON NEWARK NJ $174,530 8/1/2015 7/31/2018

RFP (?)
Reference # (?) Description Vendor Name City State Est. Amt (?) Start/ Effective Date End Comments
4600010566 Security Training Services     INTERPASS LTD/NETDIMENSIONS,INC. JV ROCKY HILL CT $8,588,378 12/1/2015 11/30/2020  

Govt (?)
Reference # (?) Description Vendor Name City State Est. Amt (?) Start/ Effective Date End Comments
4600010676 Radios/Accessories - 5 Yr. Req. Contract ICOM AMERICA, INC. BELLEVUE WA $427,561 5/1/2016 4/30/2021
4600010717 Toners, Procurement - 1 Yr. Req. Contract W.B. MASON CO INC. SECAUCUS NJ $1,050,885 4/1/2016 3/31/2017
4600010518 MSA Masks - 5 Yr. Req. Contract ARAMSCO, INC. RIDGEWOOD NY $724,767 3/3/2016 3/2/2021
4600010694 Crash Traffic Equip, WIM - 2 Yr. Req. Contract TRANSPO INDUSTRIES, INC. NEW ROCHELLE NY $397,750 3/1/2016 2/28/2018
4600010585 Pump, Motor, Comp & Acc., WIM - 2 Yr. Req. Contract W.W. GRAINGER, INC. MASPETH NY $119,287 3/1/2016 2/28/2018
4600010653 Office Supplies, Procurement - 1 Yr. Req. Contract W.B. MASON CO INC. SECAUCUS NJ $378,510 2/27/2016 2/26/2017
4600010712 HP/Brother Machines, Procurement - 2 Yr. Req. Contract CORPORATE COMPUTER SOLUTIONS, INC. HARRISON NY $577,400 2/23/2016 2/22/2018
4600010486 OzzyJuice Cleaning, PATH - 2 Yr. Req. Contract  BLACK & COMPANY INDIANAPOLIS IN $41,041 2/15/2016 2/14/2018
4600010673 Hilti Parts & Supplies, WIM - 2 Yr. Req. Contract HILTI, INC. TULSA OK $235,335 2/9/2016 2/8/2018
4600010668 Xerox pool plan, Ops - 1 Yr. Req. Contract XEROX CORPORATION MORRIS PLAINS NJ $99,490 2/7/2016 2/6/2017
4600010560 Concrete Test Molds, WIM - 2 Yr. Req. Contract M.A. INDUSTRIES,  INC PEACHTREE CITY GA $25,455 2/5/2016 2/4/2018
4600010554 File Cabinets, WIM - 2 Yr. Req. Contract INSCAPE CORPORATION HOLLAND LANDING ON $53,566 2/5/2016 2/2/2018
4600010723 Admin Serv Program, HR - 4 Years TOTAL ADMINISTRATIVE SERVICES NASHVILLE TN $420,000 2/1/2016 1/31/2020
4600010716 Project Services, OBDCR - 4 Years BEATTY'S SERVICES, INC. HACKENSACK NJ $1,500,000 2/1/2016 1/31/2020
4600010719 ProcessTolls, PATH, Airport Rcpt. - 3 Years JP MORGAN CHASE NEW YORK NY $1,350,000 2/1/2016 7/31/2018
4600010720 Temp Staff, CSO PATC THE HR SOURCE, INC. LANDOVER MD $50,000 2/1/2016 10/31/2016
4600010509 Motorola Radio Equip, WIM - 2 Yr. Req. Contract MOTOROLA SOLUTIONS, INC. BORDENTOWN NJ $1,498,999 2/1/2016 1/31/2018
4600010630 Bulk Rock Salt, NYMT - Req. Contract MORTON SALT, INC. CHICAGO IL $25,920 2/1/2016 10/31/2016
4600010631 Bulk Rock Salt, LGA - Req. Contract MORTON SALT, INC. CHICAGO IL $210,672 2/1/2016 10/31/2016
4600010632 Bulk Rock Salt, GB - Req. Contract MORTON SALT, INC. CHICAGO IL $62,441 2/1/2016 10/31/2016
4600010633 Bulk Rock Salt, JFK - Req. Contract MORTON SALT, INC. CHICAGO IL $526,680 2/1/2016 10/31/2016
4600010634 Bulk Rock Salt, OB - Req. Contract MORTON SALT, INC. CHICAGO IL $50,488 2/1/2016 10/31/2016
4600010635 Bulk Rock Salt, BB - Req. Contract MORTON SALT, INC. CHICAGO IL $50,142 2/1/2016 10/31/2016
4500066548 Chairs, Real Estate EXEMPLIS CYPRESS CA $26,716 1/20/2016 N/A
4600010495 Traffic Cones, 1 Yr. Req. Contract WORK AREA PROTECTION CORP. SAINT CHARLES IL $418,605 1/20/2016 1/19/2017
4600010610 Diversity Training, HR - 3 Years NEW HAVEN CONSULTING GROUP SHELTON CT $1,500,000 1/15/2016 1/14/2019
4500066530 PAPD Items Academy, Public Safety ATLANTIC TACTICAL OF NEW JERSEY, INC.  SOMERSET NJ $490,721 1/12/2016 N/A
4600010659 Staffing Services, HR - 3 Years THE HR SOURCE, INC. LANDOVER MD $1,500,000 1/10/2016 1/9/2019
4600010670 Hardware Items, WIM - 2 Yr. Req. Contract COLONIAL HARDWARE CORP. SPRINGFIELD NJ $709,800 1/5/2016 1/4/2018
4500066514 Articulated Boom Lift, EWR UNITED RENTALS NORTH AMERICA, INC SOUTH PLAINFIELD NJ $95,943 1/4/2016 N/A
4600010658 Training Services, HR - 4 Years' AON CONSULTING INC. WASHINGTON DC $1,500,000 1/1/2016 12/31/2019
4600010666 Gerber Printing Supplies, Ops - 2 Yr. Req. Contract BREWER INTERNATIONAL INC. SOMERSET NJ $192,484 1/1/2016 12/31/2018
4600010667 Paint & Paint Supplies, WIM - 1 Yr. Req. Contract RICCIARDI BROTHERS, INC. MAPLEWOOD NJ $238,786 1/1/2016 12/31/2016
4600010586 3M Reflective Material/PA Sign Shop 3M COMPANY PITTSBURGH NY $350,000 1/1/2016 12/31/2018
4600010492 Batteries, WIM- 2 Yr. Req. Contract T S C DISTRIBUTING LLC AMARILLO TX $62,880 1/13/2016 1/12/2018
4600010681 Medical Staffing, HR - 3 Years WINSTON SUPPORT SERVICES, LLC NEW YORK NY $495,000 1/1/2016 12/31/2018
4600010691 Manit of Gerber Equip, Ops BREWER INTERNATIONAL INC. SOMERSET NJ $49,635 1/1/2016 12/31/2018
4600010663 O&M, Port Jersey Marine Terminal - 3 Years GEORGE S. HALL, INC. PARSIPPANY NJ $3,776,086 1/1/2016 12/31/2018
4600010558 Firefighting Gear, PAPD - 3 Yr. Req. Contract AAA EMERGENCY SUPPLY WHITE PLAINS NY $1,430,438 1/1/2016 12/31/2018
4600010530 Respirators, WIM - 3 Yr. Req. Contract AAA EMERGENCY SUPPLY WHITE PLAINS NY $1,372,506 1/1/2016 12/31/2018
4600010491 Radios and Equip, WIM - 2 Yr. Req. Contract EASTERN COMMUNICATIONS, LTD. LONG ISLAND CITY NY $1,680,795 1/1/2016 12/31/2017
4600010480 Safety Equipment, Public Safety LAWMEN SUPPLY COMPANY OF NEW JERSEY, INC. PENNSAUKEN NJ $99,956 1/1/2016 12/31/2016
4600010689 Freon, WIM - 2 Yr. Req. Contract AIRGAS REFRIGERANTS, INC LONG ISLAND CITY NY $81,938 12/31/2015 12/30/2017
4600010517 Drainzall Grease Digestor - 3 Yr. Req. Contract MIRANDY PRODUCTS, LTD. HEMPSTEAD NY $99,410 12/23/2015 12/22/2018
4500066389 CNG Bi-Fuel Service Truck, CAD - EWR GABRIELLI TRUCK SALES, LTD HICKSVILLE NY $136,399 12/22/2015 N/A
4600010677 Gas OPRG (E) Reg, JFK SPRAGUE OPERATING RESOURCES LLC WHITE PLAINS NY $1,000,000 12/19/2015 12/18/2016
4600010660 Battle Dress Uniforms, PAPD - 3 Yr. Req. Contract SAMZIES UNIFORMS EWING NJ $1,193,405 12/4/2015 12/3/2018
4500066435 Handheld Portable Radios, WTC Redevolpment PMC ASSOCIATES HAZLET NJ $415,487 12/3/2015 N/A
RWIMFM0002 Online Auction Svs, Procurement - 3 Years PROPERTYROOM.COM INC. MISSION VIEJO CA $120,000 12/1/2015 11/30/2018
4600010646 Bulk Rock Salt, MOTBY - 9 Months OCEANPORT LLC CLAYMONT DE $112,500 11/25/2015 10/31/2016
4600010647 Bulk Rock Salt, LT - 9 Months OCEANPORT LLC CLAYMONT DE $42,600 11/25/2015 10/31/2016
4600010648 Bulk Rock Salt, PATH - 9 Months OCEANPORT LLC CLAYMONT DE $30,000 11/25/2015 10/31/2016
4500066343 Prius II, CAD HUDSON TOYOTA JERSEY CITY NJ $73,916 11/24/2015 N/A
4600010629 Temp Staff for CSO, PATC - 9 Months THE HR SOURCE, INC. LANDOVER MD $50,000 11/23/2015 8/22/2016
4500066390 Thermal Synthetic Tags, EWR PRINT-O-TAPE, INC. MUNDELEIN IL $94,275 11/23/2015 N/A
4600010602 Bulk Rock Salt, EWR - 7 Days MORTON SALT, INC. CHICAGO IL $108,458 11/23/2015 11/30/2015
4600010605 Bulk Rock Salt Waldo, PATH - 7 Days MORTON SALT, INC. CHICAGO IL $28,548 11/23/2015 11/30/2015
4500066370 Instruments and Warrenty, Public Safety FISHER SCIENTIFIC COMPANY, LLC PITTSBURGH PA $499,012 11/20/2015 N/A
4600010620 Bulk Rock Salt, HT - 1 Yr. Req. Contract MORTON SALT, INC. CHICAGO IL $46,138 11/16/2015 10/31/2016
4600010622 Bulk Rock Salt, EWR - 1 Year MORTON SALT, INC. CHICAGO IL $189,980 11/16/2015 10/31/2016
4600010623 Bulk Rock Salt, LT - 1 Yr. Req. Contract MORTON SALT, INC. CHICAGO IL $114,112 11/16/2015 10/31/2016
4600010624 Bulk Rock Salt, PN-PE - 1 Yr. Req. Contract MORTON SALT, INC. CHICAGO IL $237,475 11/16/2015 10/31/2016
4600010625 Bulk Rock Salt, GWB - 1 Yr. Req. Contract MORTON SALT, INC. CHICAGO IL $125,226 11/16/2015 10/31/2016
4600010626 Bulk Rock Salt, SWF - 1 Yr. Req. Contract MORTON SALT, INC. CHICAGO IL $62,808 11/16/2015 10/31/2016
4500066314 Runway Deicers, CAD-JFK-EWR GABRIELLI TRUCK SALES, LTD HICKSVILLE NY $1,704,266 11/13/2015 N/A
4600010609 Fuel Ulsd 2D Biodiesel B20, JFK - 1 Yr Req. Contract SPRAGUE OPERATING RESOURCES LLC WHITE PLAINS NY $1,000,000 11/11/2015 11/10/2016
4600010606 Bulk Rock Salt, JFK - 3 Months ATLANTIC SALT, INC. LOWELL MA $226,500 11/10/2015 1/31/2016
4600010607 Bulk Rock Salt, LGA - 3 Months ATLANTIC SALT, INC. LOWELL MA $90,900 11/10/2015 1/31/2016
4500066284 Chevrolet Equinox, CAD NORTHWEST HILLS CHEVROLET TORRINGTON CT $156,048 11/9/2015 N/A
4600010599 Rock Salt Bulk, OTBY-Port Commerce - 3 Months  MORTON SALT, INC. CHICAGO IL $85,644 11/9/2015 1/31/2016
4600010589 Rock Salt Bulk, GWB - 3 Months  MORTON SALT, INC. CHICAGO IL $48,000 11/6/2015 1/31/2016
4500066319 100-8 Rail, Drilled, PATH ARCELORMITTAL USA LLC STEELTON PA $248,226 11/5/2015 N/A
4600010574 Mason Truck Rental, CAD - 2 Yr. Req. Contract UNITED RENTALS NORTH AMERICA, INC SOUTH PLAINFIELD NJ $531,576 11/1/2015 10/31/2017
4600010580 Fuel ULSD, EWR - 1 Yr. Req. Contract  NATIONAL TERMINAL, INC. NEWARK NJ $975,000 11/1/2015 10/31/2016
4600010582 Fuel ULSD, EWR - 1 Yr. Req. Contract  ALLIED OIL, LLC MANVILLE NJ $500,000 11/1/2015 10/31/2016
4500066296 Electrical Meters W&S, PATH W.W. GRAINGER, INC. MASPETH NY $46,973 10/28/2015 N/A
4600010571 Cleanout Trucks, CAD - 2 Yr. Req. Contract EAGLE EQUIPMENT, INC. BRANCHBURG NJ $500,976 11/1/2015 10/31/2017
4600010570 Safety Shoes, PATH - 3 Yr. Req. Contract SAF-GARD SAFETY SHOE COMPANY NEW CASTLE DE $400,000 11/1/2015 10/31/2018
4600010557 Temporary Staff/Port Commerce THE HR SOURCE, INC. LANDOVER MD $50,000 10/19/2015 4/18/2016
4600010562 Temporary Staff/JFK THE HR SOURCE, INC. LANDOVER MD $37,700 10/19/2015 4/18/2016
4500066260 Chevy Equinox, CAD NORTHWEST HILLS CHEVROLET TORRINGTON CT $243,695 10/15/2015 N/A
4500066256 Lifepak 100 and Accessories, PAPD PHYSIO-CONTROL, INC. REDMOND WA $1,474,745 10/14/2015 N/A
4500066255 Lifts and Accessories, JFK-CAD  MOHAWK RESOURCES LTD. AMSTERDAM NY $104,303 10/13/2015 N/A
4500066257 ROAD CONTROL GATES, TB&T TAPCO BROWN DEER WI $44,600 10/13/2015 N/A
4600010551 Uniforms, TB&T - 3 Yr. Req. Contract CLEAN RENTAL SERVICES, INC. PHILADELPHIA PA $1,243,915 10/9/2015 10/8/2018
4600010531 Automotive Light Bars, WIM - 2 Yr. Req. Contract GENERAL SALES ADMINISTRATION, INC. KENVIL NJ $1,199,461 10/8/2015 10/7/2017
4500066226 Duplo Callator, Ops DUPLO USA CORPORATION WHIPPANY NJ $97,305 10/7/2015 N/A
4600010532 Car Rental Service, CAD - 2 Yr. Req. Contract ELRAC , LLC WAYNE NJ $1,360,000 9/30/2015 9/29/2017
4600010506 Diesel Fuel Oil #2 ULDS, PATH - 1 Year NATIONAL TERMINAL, INC. NEWARK NJ $125,000 11/1/2015 10/31/2016
4500066207 Radio Test Equipment, WTC Construction TECHNICAL COMMUNITIES, INC. SAN BRUNO CA $27,408 9/24/2015 N/A
4600010499 Strategic Business Offering Servic, TD - 1 Year CIO EXECUTIVE COUNCIL FRAMINGHAM MA $28,000 9/1/2015 8/31/2016
4500066137 Portable Intelligent Battery, WTC  CARAHSOFT TECHNOLOGY CORP. RESTON VA $535,488 8/28/2015 N/A
4500066138 Mobile Light Tower Generators, WIM-OEM GKY INDUSTRIES JERSEY CITY NJ $98,360 8/20/2015 N/A
4600010470 O&M of MacMillan Bloedel Bldg, PATH - 9 Months GEORGE S. HALL, INC. PARSIPPANY NJ $1,186,524 8/4/2015 5/3/2016
4500066092 Contura Chairs, Real Estate GUNLOCKE COMPANY, LLC WAYLAND NY $30,459 8/7/2015 N/A
4600010458 Temp Staff EZ-Pass SWAC, TB&T - 3 Years CRA, INC. ALEXANDRIA VA $371,000 8/3/2015 8/2/2018
4600010440 Professional Prog Mgmt Svcs, OEM - 3 Years CRA, INC. ALEXANDRIA VA $3,469,050 7/1/2015 6/30/2018

Options (?)
Reference # (?) Description Vendor Name City State Est. Amt (?) Start/ Effective Date End Comments
4600009871 LGA Bag Belt Veh Arrest, Aviation - Exercised Second One Year Option OXFORD AIRPORT TECHNICAL SERVICES ELMONT NY $277,571 4/1/2016 3/31/2017
4600009410 Maint/Test/Repair Svcs HVAC Sys, PATH - 3 Years - Exercised 1st Option Period AIR SYSTEMS MAINTENANCE, INC. KENILWORTH NJ $134,597 3/1/2016 2/28/2017
4600009836 Pass Ldg Brdg Maint Rep, LGA - Second 1-Yr Option OXFORD AIRPORT TECHNICAL SERVICES ELMONT NY $88,580 3/12/2016 3/11/2017
4600008974 Central Fire Alarm Monitor, JFK - 3 Years SCARSDALE SECURITY SYSTEMS, INC. SCARSDALE NY $48,107 3/1/2016 2/28/2017
4600009422 Excess Color Printing, Ops Services - 3 Years FLM REPROGRAPHICS, INC FAIRFIELD NJ $37,135 2/21/2016 2/20/2017
4600009349 O&M Airtrain Jamaica Complex MERIDIAN MANAGEMENT CORPORATION PONTE VEDRA BEACH FL $5,038,751 2/1/2016 1/31/2017
4600009386 Water Treat. Chem, ENG - 2 Yr. Req. Contract  U.S. WATER SERVICES, INC. ST MICHAEL MN $138,621 1/22/2016 1/21/2017
4600008960 Sanitary Sewer Cleaning, EWR RUSSELL REID, INC. KEASBEY NJ $174,439 1/10/2016 1/9/2017
4600008955 Maint & Repair Srvcs on a Call-In Basis, NY Marine Term - 3 Years CARTER CONTRACTING CO. CORP. UNION NJ $137,783 1/9/2016 1/8/2017
4600009351 Cleaning Services, LT - 3 Years UNITED SERVICES INC. KEARNY NJ $971,826 1/1/2016 12/31/2018
4600009364 Clinical Lab Services, OMS - 3 Years QUEST DIAGNOSTICS INCORPORATED COLLEGEVILLE PA $102,314 1/1/2016 12/31/2016
4600009309 BFF&SFF Wastewater, JFK - 3 Years SYSTEMATIC TECHNOLOGIES, INC. HUNTINGTON NY $573,418 12/17/2015 12/16/2017
4600009330 Cleaning, Teleport/Bathgate CLASSICO BUILDING MAINTENANCE, INC. BRONX NY $222,853 12/14/2015 12/13/2016
4600009641 Cleaning, Central Term Bldg, LGA - 1 Year GUARDIAN SECURITY SERVICES, INC NEW YORK NY $5,217,997 12/1/2015 11/30/2016
4600008422 O&M, TEB - 5 Years AFCO - AVPORTS MANAGEMENT LLC WASHINGTON DC $37,938,971 12/1/2015 11/30/2020
4600008884 Fire Protection and Maint. Svcs, PATH - 4 Years AFA PROTECTIVE SYSTEMS, INC. NORTH BRUNSWICK NJ $196,651 11/16/2015 11/15/2016
4600008738 Snow Removal Non-Aero, JFK - 2 Years SNOWLIFT LLC FREEPORT NY $2,460,000 11/1/2015 10/31/2016
4600008761 Snow Removal Aero, JFK - 2 Years SNOWLIFT LLC FREEPORT NY $1,643,000 11/1/2015 10/31/2016
4600008764 Snow Removal, LGA - 3 Years AERO SNOW REMOVAL CORP. PORT WASHINGTON NY $2,650,000 11/1/2015 10/31/2016
4600009247 Engineering Drawings, Ops - 3 Years FLM REPROGRAPHICS, INC FAIRFIELD NJ $232,131 11/1/2015 10/31/2016
4600008387 Record Center Services, JFK T.U.C.S. CLEANING SERVICES, INC. ORANGE NJ $168,863 11/1/2015 10/31/2016
4600008389 Fire Alarm Maintenance, GWB - 3 Years RAPID FIRE & SECURITY SYSTEMS, INC KEANSBURG NJ $28,417 11/1/2015 10/31/2016
4600008807 Insp. Mtc. and Repair of Cranes, PATH - 3 Years PERMADUR INDUSTRIES, INC. HILLSBOROUGH NJ $57,577 11/1/2015 10/31/2016
4600008827 Cafe Refri-Freezer Repair Svcs, Ops - 3 Years SUMMIT RESTAURANT REPAIRS & SALES MINEOLA NY $53,083 10/16/2015 10/15/2016
4600007863 Elev/Esc Maint & Repair,EWR - Exercised 2nd Option KONE, INC. WARREN NJ $3,607,636 10/1/2015 9/30/2016
4600009621 Xerox IGen4 One year Maint., Operations Services XEROX CORPORATION MORRIS PLAINS NJ $107,065 9/27/2015 9/26/2016
4600010062 Fuel Serve Emerg, FTA PATH WTC COO - 1 Year FLYNN ENERGY TRANSPORT INC. TOWANDA PA $348,896 9/1/2015 8/31/2016
4600010063 Fuel Serve Emer, Multi Facility FEMA COO - 1 Year FLYNN ENERGY TRANSPORT INC. TOWANDA PA $419,650 9/1/2015 8/31/2016
4600009171 Rental, Attenuators, CAD - 2 Yr. Req. Contract HERTZ EQUIPMENT RENTAL CORP. NEWARK NJ $136,073 9/1/2015 8/31/2016
4600009184 Rental,Compressors, CAD - 2 Yr. Req. Contract HERTZ EQUIPMENT RENTAL CORP. NEWARK NJ $177,105 9/1/2015 8/31/2016
4600028614 Catch Basin Clng., NJMT - Exercised Second 1-Year Option FRED A. COOK JR. INC. MONTROSE NY $91,889 8/10/2015 8/9/2016
4600008098 Multi Facility Energy Audits, 3rd Option HONEYWELL BUILDING SOLUTIONS ALBANY NY $500,000 3/15/2015 3/15/2016
4600008089 Multifaciltiy Energy Audits, 3rd Option JOHNSON CONTROLS, INC. NEW YORK NY $500,000 3/15/2015 3/14/2016
4600008097 Multifaciltiy Energy Audits, 3rd Option CONSTELLATION ENERGY FORT WASHINGTON PA $500,000 3/15/2015 3/14/2016
4600008099 Multifaciltiy Energy Audits, 3rd Option NORESCO, LLC NEW YORK NY $500,000 3/15/2015 3/14/2016

Negotiated (?)
Reference # (?) Description Vendor Name City State Est. Amt (?) Start/ Effective Date End Comments
4600010592 Marine Buoys, WIM - 1 Yr. Req. Contract PHAROS MARINE AUTOMATIC POWER WILLIAMSBURG VA $74,393 5/12/2016 5/11/2017 Sole Source (?)
4600010695 Aero Lighting Equip, WIM - 5 Years COOPER CROUSE-HINDS, LLC WINDSOR CT $8,718,878 2/1/2016 1/31/2021 Sole Source (?)
4600010638 Light Ctrl Sys Mtce, 5 Airports - 5 Years COOPER CROUSE-HINDS, LLC WINDSOR CT $3,095,472 2/1/2016 1/31/2021 Sole Source (?)
4600010641 Signage Equip & Parts, 5 Airports - 5 Years COOPER CROUSE-HINDS, LLC WINDSOR CT $2,212,049 2/1/2016 1/31/2021 Sole Source (?)
4600010643 Refurb Aero Lighting, 5 Airports - 5 Years COOPER CROUSE-HINDS, LLC WINDSOR CT $8,528,466 2/1/2016 1/31/2021 Sole Source (?)
4300002331 Electrical Equipment HCMF, PATH   UNIVERSAL SEWING SUPPLY INC. ST. LOUIS MO $36,803 1/29/2016 N/A Emergency
4500066560 Axles, Oversized Wheel, PATH PA-5 Railcar TSS, INC. PINEHURST NC $80,850 1/27/2016 N/A Sole Source (?)
4600010713 HVAC Siemens BMS Systems Maint, JFK - 3 Years SIEMENS BUILDING TECHNOLOGIES BOHEMIA NY $226,656 1/25/2016 1/24/2019 Sole Source (?)
4500066553 Rebuild/Repair DVR, PATH TOA COMMUNICATION SYSTEMS, INC. YONKERS NY $41,299 1/21/2016 N/A Sole Source (?)
4600010587 Main Contract, Engineering MICROSOL RESOURCES CORPORATION NEW YORK NY $40,560 1/1/2016 12/31/2018 Sole Source (?)
4600010552 Kardex Maint/Repair, WIM - 2 Year Service Contract GARDEN STATE OFFICE SYSTEMS & EQUIPMENT INC PISCATAWAY NJ $87,324 1/1/2016 12/31/2017 Sole Source (?)
4500066493 Mobile Passport Scanners, EWR IER, INC. BELTON TX $35,720 12/22/2015 N/A Sole Source (?)
4500066425 Air Brake Hose Kit, PATH PA-5 STRATO, INC. PISCATAWAY NJ $46,408 12/1/2015 N/A Sole Source (?)
4500066451 Railcar PA4 Parts E-CAMS HCMF, PATH BOMBARDIER TRANSPORTATION PITTSBURGH PA $245,828 12/9/2015 N/A Sole Source (?)
4600010636 Monthly Parking Spaces, WTC - 1 Year LAZ PARKING PHILADELPHIA PA $186,528 12/1/2015 11/30/2016 Sole Source (?)
4300002305 Removal of Rail Ties, PATH EAST COAST RAILROAD SERVICES, LLC NEW WINDSOR NY $25,484 11/30/2015 N/A Emergency
4500066369 WABTEC Parts for PA-5 Railcars, PATH WABTEC, INC. SPARTANBURG SC $40,462 11/20/2015 N/A Sole Source (?)
4600010612 Variable Message Sign Maint., PABT - 1 Year ALPINE SYSTEMS, INC. KILLINGTON VT $61,150 11/16/2015 11/15/2016 Sole Source (?)
4500066349 Services for Kardex Units, Office Space GARDEN STATE OFFICE SYSTEMS & EQUIPMENT INC PISCATAWAY NJ $34,600 11/13/2015 N/A Sole Source (?)
4300002301 Remediation Services, PATH AFTERMATH SERVICES LLC AURORA IL $26,226 11/6/2015 N/A Emergency
4600010573 Maintenance Digitial X-Ray, OMS, 3 Years ALPHA MEDICAL EQUIPMENT NEW ROCHELLE NY $49,500 11/1/2015 10/31/2018 Sole Source (?)
4600010579 Tunnel Fan Vent System Maint, PATH -  3 Years  HOWDEN NORTH AMERICA, INC. ALLENTOWN PA $420,979 10/28/2015 8/31/2018 Sole Source (?)
4300002294 Replacement of Centerline Cans, Aviation HELLMAN ELECTRIC CORPORATION BRONX NY $73,550 10/20/2015 N/A Emergency
4600010508 Operator Seats and Parts, PATH - 2 Years USSC, LLC EXTON PA $84,089 10/16/2015 10/15/2017 Sole Source (?)
4500066225 R/H Switch Point, PATH PROGRESS RAIL SERVICES CORPORATION COVINGTON KY $34,550 10/6/2015 N/A Sole Source (?)
4600010427 Vehicle IT Equip, WIM -2 Yr. Req. Contract GENERAL SALES ADMINISTRATION, INC. KENVIL NJ $251,103 10/8/2015 10/7/2017 Sole Source (?)
4500066209 OEM Parts, PATH WABTEC, INC. SPARTANBURG SC $95,048 9/25/2015 N/A Sole Source (?)
4600010500 Wabtec Passenger Transit WABTEC, INC.  ELMSFORD NY $1,351,526 9/3/2015 8/31/2018 Sole Source (?)
4600010496 Tread Brake Unit Repair, PATH - 3 Years WABTEC PASSENGER TRANSIT ELMSFORD NY $1,837,326 9/1/2015 8/31/2018 Sole Source (?)
4300002284 Repair Parts for Mooseboat, LGA-CAD LOCKWOOD BOAT WORKS, INC. SOUTH AMBOY NJ $27,490 8/26/2015 N/A Confirmatory
4500066143 WABTEC Parts for PA-5 Railcars, PATH WABTEC, INC. SPARTANBURG SC $92,595 8/21/2015 N/A Sole Source (?)
4600010501 Subscription Svcs, Aviation - 2 Years DATA BASE PRODUCTS, INC. DALLAS TX $40,000 8/1/2015 7/30/2017 Sole Source (?)
4500066191 Electrical Fuse Railcar HCMF, PATH WABTEC, INC. SPARTANBURG SC $79,000 9/18/2015 N/A Sole Source (?)
4600010514 Track Inspection W&S, PATH SPERRY RAIL SERVICE DANBURY CT $98,975 9/18/2015 12/31/2016 Sole Source (?)
4300002287 Compresssor U/O Chiller HT, TBT CARRIER CORPORATION/NAO MISC. CHARLOTTE NC $42,000 9/14/2015 N/A Emergency
4500066122 Leveling Valves - PATH Harrison Stockroom KNORR BRAKE COMPANY WESTMINSTER MD $71,820 8/12/2015 N/A Sole Source (?)
4500066091 Event Recorders, PATH Harrison Stockroom WABTEC CANADA-BACH LONDON ON $98,250 8/10/2015 N/A Sole Source (?)
4500066094 Rail & Copper Cables, PATH Waldo Stockroom ERICO INTERNATIONAL CORPORATION SOLON OH $42,838 8/10/2015 N/A Sole Source (?)
4500066097 Hybrid Tie Ext Module, Brackets, PATH LB FOSTER COMPANY PITTSBURGH PA $250,000 8/10/2015 N/A Sole Source (?)
4600010472 Railcar Compact Inverter Unit, PATH - 2 Years SIEMENS INDUSTRY INC. ELK GROVE VILLAGE IL $61,600 8/7/2015 8/6/2017 Sole Source (?)
4300002279 Ready-Mix Concrete, JSTC WELDON CONCRETE WESTFIELD NJ $33,680 8/5/2015 N/A  
4500066077 Third Rail Shoe Assembly, PATH WABTEC, INC. SPARTANBURG SC $96,300 8/3/2015 N/A Sole Source (?)
4500066080 WE-62 Carbon Brush, PATH MERSEN USA BN CORP BOONTON NJ $26,250 8/3/2015 N/A Sole Source (?)
4600010381 Water Meter Reading, Port Commerce - 3 Years SENSUS USA INC. UNIONTOWN PA $87,489 5/15/2015 5/14/2018 Sole Source (?)

Contract Amendments (?)
Reference # (?) Description Vendor Name City State Est. Amt (?) End Change Order Type Comments
4600009769 Medical Supplies, WIM - 2 Yr. Req. Contract - Exercised 120-Day Extension EVER READY FIRST AID & MEDICAL BROOKLYN NY $0  8/18/16 Extension
4600009851 Refuse Removal/Recylcing, EWR - Exercised 120-Day Extension GIORDANO COMPANY NEWARK NJ $86,942  7/31/16 Extension
4600009766 Mobile Office Trailer and Locker, SIB - Exercised 120-Day Extension WILLIAMS SCOTSMAN  KEARNY NJ $7,310  5/12/16 Extension
4600008601 Wildlife Services, All Airports - 2 Years - Exercised 120-Day Extension UNITED STATES DEPARTMENT OF AGRICULTURE (USDA) APHIS, WILDLIFE PITTSTOWN NJ $351,984  4/29/16 Extension
4600008053 HVAC Air Filters Svcs, PABT - 3 Yr. Contract - Exercised 120-Day Extension BLEJWAS ASSOCIATES, INC. BRANCHBURG NJ $12,474  4/24/16 Extension
4600010382 Propellant 49, WIM - 1 Year Contract - Exercised 120-Day Extension PACE PRODUCTS, INC. PAIRIE VILLAGE KS $0  9/9/16 Extension
4600008927 Backflow Prevent, GWB/PABT/GWBBS - 2 Years - Exercised 120-Day Extension BACKFLOW PREVENTION OF COLLEGE POINT NY $15,375  5/31/16 Extension
4600010214 Uniform Rental/Purchase, WIM - Exercised 120-Day Extension CLEAN RENTAL SERVICES, INC. PHILADELPHIA PA $317,700  10/31/16 PLANNED EXTENSION
4600009913 Conduits and Misc. Items, WIM - 2 Yr. Req. Contract - Exercised 120-Day Extension  MONARCH ELECTRIC COMPANY FAIRFIELD NJ $0 8/28/16 Extension
4600008496 Qwick Kurb Traffic Components, MMD - 5 Years - Exercised 120-Day Extension  QWICK KURB, INC. GREENSBORO GA $0  8/11/16 Extension
4600009854  Misc. Plow Parts, WIM - 2 Yr. Req. Contract - Exercised 120-Day Extension BRISTOL-DONALD COMPANY, INCORPORATED NEWARK NJ $0  8/6/16 Extension
4600009798 Metal Products, WIM - 2 Yr. Req. Contract  - Exercised 120-Day Extension w/ Additional Funds PRAVCO, INC. RAHWAY NJ $86,814  7/31/16 Extension
4600009853 Misc. Plow Parts, WIM - 2 Yr. Req. Contract - Exercised 120-Day Extension w/ Additional Funds BEYER BROS. CORP. FAIRVIEW NJ $182,790  7/14/16 Extension
4600009855 Misc. Plow Parts, WIM - 2 Yr. Req. Contract - Exercised 120-Day Extension  TRIUS, INC. BOHEMIA NY $0  7/14/16 Extension
4600009633 Pavement Cutter, WIM - 1 Yr. Req. Contract - Exercised 120-Day Extension  CRAFCO, INC CHANDLER AZ $0  4/12/16 Extension
4600009843 Brake Shoes, PATH - 2 Yr. Req. Contract - Exercised 120-Day Extension  RAILROAD FRICTION PRODUCTS CORP. LAURINBURG NC $23,866  9/30/16 Extension
4600008098 Multifaciltiy Energy Audits, Work Order EWR - 3 Year Contract  HONEYWELL BUILDING SOLUTIONS ALBANY NY $14,286,471  3/14/16 Additional Item
4600009663 Bldg Maint Srvcs, Teleport/Bathgate - Exercised 120-Day Extension AUSTRAL CONSTRUCTION, INC. MONTVALE NJ $156,854 2/29/16 Extension
4600009675 Electrical Items, PATH - Exercised 120-Day Extension LOUIS SHIFFMAN ELECTRIC BROOKLYN NY $2,500  2/19/16 Extension
4600009844 Lighting Fixtures, WIM - Exercised 120-Day Extension TURTLE & HUGHES, INC. LINDEN NJ $0  7/22/16 Extension
4600009830 Elign Sweeper Parts, WIM - Exercised 120-Day Extension LACAL EQUIPMENT, INC. JACKSON CENTER OH $0  6/30/16 Extension
4600010006 Lumber, WIM - Exercised 120-Day Extension SAMUEL FELDMAN LUMBER CO. INC. BROOKLYN NY $0  5/20/16 Extension
4600010252 Buoys & Equip, WIM - Exercised 120-Day Extension PHAROS MARINE AUTOMATIC POWER WILLIAMSBURG VA $0  5/11/16 Extension
4600009632 Police Lockers, WIM - Exercised 120-Day Extension SNAPPY SOLUTIONS, INC EAST HAMPTON NY $0  4/14/16 Extension
4600010137 Printer/Fax Machine Toner - Exercised 120-Day Extension W.B. MASON CO INC. SECAUCUS NJ $352,948  3/31/16 Extension
4600009547 Landscaping Supplies, WIM - Exercised 120-Day Extension REED & PERRINE SALES, INC. TENNENT NJ $0  3/10/16 Extension
4600010142 Office Supplies - Exercised 120-Day Extension W.B. MASON CO INC. SECAUCUS NJ $0  2/26/16 Extension
4600010121 Printers/Fax Machines - Exercised 120-Day Extension CORPORATE COMPUTER SOLUTIONS, INC. HARRISON NY $46,386  2/22/16 Extension
4600010111 Xerox Pool Plan, Op Services - Exercised 120-Day Extension XEROX CORPORATION MORRIS PLAINS NJ $31,330  2/6/16 Extension
4600009628 Blow Mulch Svcs, EWR - Exercised 120-Day Extension DOWNES TREE SERVICE HAWTHORNE NJ $4,700  1/2/16 Extension
4600006735 Sec. Audit & Training  - Extension INTERPASS, LTD. IRVINGTON NY $354,245  12/31/15 Extension
4600009783 Electrical Lamps/Bulbs, WIM - Exercised 120-Day Extension W.W. GRAINGER, INC. MASPETH NY $0  5/4/16 Extension
4600007891 Accident Management, CAD - Exercised 120-Day Extension GEORGE OLMEZER APPRAISAL AVENEL NJ $290,814  1/31/16 Extension
4600009707 Refuse Removal, Multi-facility - Exercised 120-Day Extension ALLEGRO SANITATION CORP. SECAUCUS NJ $51,349  1/13/16 Extension
4600009639 Vests, Safety & Security, PATH - Exercised 120-Day Extension ABEL UNLIMITED INC. RIVIERA BEACH FL $25,000  1/13/16 Extension

ALL FACILITIES CALL-IN PROGRAM FOR PERFORMANCE-BASED ENERGY AUDIT SERVICES 2010-2013
Reference # (?) Vendor Name City State
4600008097 CONSTELLATION ENERGY FORT WASHINGTON PA
4600008098 HONEYWELL BUILDING SOLUTIONS ALBANY NY
4600008089 JOHNSON CONTROLS, INC. NEW YORK NY
4600008099 NORESCO, LLC NEW YORK NY

Web Site Disclaimer
© 2001-CurrentYear The Port Authority of New York and New Jersey. All Rights Reserved.

The Port Authority of New York and New Jersey
(212) 435-7000  •  4 World Trade Center, 150 Greenwich Street, New York, NY 10007